ホバート の空港の天気 - METARとTAF

ホバート国際空港 ( YMHB / HBA ) - オーストラリア タスマニア州、Cambridge
飛行場実況気象(Metar)
観測時間07/29 13:30 AEST (07/29 03:30 UTC)
風向・風速北西 7m/s
視程10km以上
天気現象
少しの雲 雲底高度 1100m
全天の8割程度の雲 雲底高度 1280m
気温11℃
湿度58%
気圧1002hPa
METARYMHB 290330Z 31014KT 9999 FEW036 BKN042 11/03 Q1002 RF00.0/000.0
過去の天気等 Google飛行場航空写真 Wunderground天気予報

過去48時間のMETAR

飛行場予報(TAF)
発表時間: 7/29 12:02 AEST (7/29 02:02 UTC)
予報対象時間: 29日12時 AEST ~ 30日10時 AEST
風向・風速西北西 7m/s 瞬間風速 13m/s
視程10km以上
全天の4割程度の雲 雲底高度 1220m
29日17時 AEST から
風向・風速北北西 4m/s
視程10km以上
全天の4割程度の雲 雲底高度 910m
TAF AMD YMHB 290202Z 2902/3000 30014G26KT 9999 SCT040
FM290700 34008KT 9999 SCT030